createdAt,value
2022-10-11T00:00:14.303Z,98219.13
2022-10-11T00:05:15.530Z,98223.81
2022-10-11T00:10:16.725Z,98229.06
2022-10-11T00:15:17.948Z,98232.44
2022-10-11T00:20:19.157Z,98237.19
2022-10-11T00:25:20.408Z,98232.84
2022-10-11T00:30:21.648Z,98228.84
2022-10-11T00:35:22.913Z,98230.41
2022-10-11T00:40:24.268Z,98223.06
2022-10-11T00:45:25.519Z,98227.84
2022-10-11T00:50:26.723Z,98228.97
2022-10-11T00:55:28.289Z,98232.97
2022-10-11T01:00:29.495Z,98238.81
2022-10-11T01:05:30.810Z,98237.28
2022-10-11T01:10:32.044Z,98226.34
2022-10-11T01:15:33.280Z,98211.84
2022-10-11T01:20:34.489Z,98215.47
2022-10-11T01:25:35.690Z,98220.03
2022-10-11T01:30:36.899Z,98225.94
2022-10-11T01:35:38.133Z,98220.25
2022-10-11T01:40:39.339Z,98217.56
2022-10-11T01:45:41.475Z,98229.66
2022-10-11T01:50:42.738Z,98239.09
2022-10-11T01:55:44.210Z,98229.16
2022-10-11T02:00:45.553Z,98243.72
2022-10-11T02:05:46.773Z,98236.03
2022-10-11T02:10:48.053Z,98223.50
2022-10-11T02:15:49.269Z,98216.88
2022-10-11T02:20:50.503Z,98226.16
2022-10-11T02:25:51.707Z,98238.13
2022-10-11T02:30:53.011Z,98238.91
2022-10-11T02:35:54.210Z,98235.47
2022-10-11T02:40:55.653Z,98231.16
2022-10-11T02:45:56.860Z,98235.69
2022-10-11T02:50:58.114Z,98239.72
2022-10-11T02:55:59.367Z,98231.31
2022-10-11T03:01:00.592Z,98238.59
2022-10-11T03:06:02.193Z,98241.31
2022-10-11T03:11:03.696Z,98242.56
2022-10-11T03:16:04.945Z,98247.13
2022-10-11T03:21:06.303Z,98240.69
2022-10-11T03:26:08.057Z,98262.13
2022-10-11T03:31:09.746Z,98251.16
2022-10-11T03:36:10.938Z,98255.56
2022-10-11T03:41:12.159Z,98266.31
2022-10-11T03:46:13.357Z,98275.75
2022-10-11T03:51:15.105Z,98271.06
2022-10-11T03:56:16.636Z,98272.31
2022-10-11T04:01:17.956Z,98267.81
2022-10-11T04:06:19.203Z,98271.16
2022-10-11T04:11:20.450Z,98267.72
2022-10-11T04:16:21.640Z,98275.50
2022-10-11T04:21:22.840Z,98275.53
2022-10-11T04:26:24.051Z,98279.28
2022-10-11T04:31:25.259Z,98291.44
2022-10-11T04:36:26.612Z,98286.56
2022-10-11T04:41:28.373Z,98290.06
2022-10-11T04:46:29.599Z,98295.94
2022-10-11T04:51:30.873Z,98305.00
2022-10-11T04:56:32.089Z,98308.19
2022-10-11T05:01:33.342Z,98310.28
2022-10-11T05:06:34.622Z,98308.53
2022-10-11T05:11:35.879Z,98315.72
2022-10-11T05:16:37.086Z,98309.75
2022-10-11T05:21:38.363Z,98316.13
2022-10-11T05:26:39.575Z,98320.38
2022-10-11T05:31:40.772Z,98326.81
2022-10-11T05:36:41.987Z,98333.25
2022-10-11T05:41:43.193Z,98338.53
2022-10-11T05:46:44.454Z,98344.41
2022-10-11T05:51:45.696Z,98346.03
2022-10-11T05:56:46.944Z,98358.84
2022-10-11T06:01:48.263Z,98368.63
2022-10-11T06:06:49.485Z,98376.78
2022-10-11T06:11:50.741Z,98368.34
2022-10-11T06:16:52.269Z,98371.63
2022-10-11T06:21:53.533Z,98381.13
2022-10-11T06:26:55.639Z,98385.72
2022-10-11T06:31:56.960Z,98390.34
2022-10-11T06:36:58.276Z,98399.50
2022-10-11T06:41:59.527Z,98404.59
2022-10-11T06:47:00.850Z,98409.81
2022-10-11T06:52:02.212Z,98421.63
2022-10-11T06:57:03.538Z,98420.03
2022-10-11T07:02:04.755Z,98429.72
2022-10-11T07:07:05.968Z,98431.41
2022-10-11T07:12:07.187Z,98440.75
2022-10-11T07:17:08.394Z,98437.31
2022-10-11T07:22:09.595Z,98449.16
2022-10-11T07:27:10.815Z,98449.38
2022-10-11T07:32:12.068Z,98451.88
2022-10-11T07:37:13.311Z,98460.75
2022-10-11T07:42:14.615Z,98452.63
2022-10-11T07:47:15.840Z,98460.03
2022-10-11T07:52:17.045Z,98466.72
2022-10-11T07:57:18.245Z,98467.16
2022-10-11T08:02:19.449Z,98467.72
2022-10-11T08:07:20.681Z,98474.06
2022-10-11T08:12:22.299Z,98471.31
2022-10-11T08:17:23.512Z,98474.06
2022-10-11T08:22:24.754Z,98476.00
2022-10-11T08:27:25.967Z,98478.25
2022-10-11T08:32:27.254Z,98488.34
2022-10-11T08:37:28.633Z,98490.09
2022-10-11T08:42:29.900Z,98475.25
2022-10-11T08:47:31.119Z,98475.09
2022-10-11T08:52:32.425Z,98480.19
2022-10-11T08:57:34.479Z,98496.38
2022-10-11T09:03:02.803Z,98491.69
2022-10-11T09:07:56.909Z,98486.81
2022-10-11T09:12:58.134Z,98479.09
2022-10-11T09:17:59.326Z,98479.34
2022-10-11T09:23:00.598Z,98483.84
2022-10-11T09:28:03.589Z,98491.63
2022-10-11T09:33:05.265Z,98490.78
2022-10-11T09:38:06.477Z,98489.72
2022-10-11T09:43:07.894Z,98490.63
2022-10-11T09:48:09.411Z,98493.25
2022-10-11T09:53:10.778Z,98489.56
2022-10-11T09:58:11.993Z,98497.75
2022-10-11T10:03:13.200Z,98487.38
2022-10-11T10:08:14.524Z,98457.75
2022-10-11T10:13:15.735Z,98449.22
2022-10-11T10:18:16.974Z,98443.19
2022-10-11T10:23:18.185Z,98428.81
2022-10-11T10:28:28.451Z,98428.81
2022-10-11T10:33:29.753Z,98423.41
2022-10-11T10:38:31.371Z,98418.78
2022-10-11T10:43:32.578Z,98421.91
2022-10-11T10:49:01.710Z,98417.44
2022-10-11T10:53:55.044Z,98417.50
2022-10-11T10:58:56.258Z,98415.81
2022-10-11T11:03:57.519Z,98414.34
2022-10-11T11:08:58.765Z,98416.59
2022-10-11T11:13:59.997Z,98410.63
2022-10-11T11:19:01.239Z,98409.72
2022-10-11T11:24:02.680Z,98411.34
2022-10-11T11:29:04.078Z,98411.91
2022-10-11T11:34:05.690Z,98412.34
2022-10-11T11:39:06.885Z,98405.81
2022-10-11T11:44:08.087Z,98401.84
2022-10-11T11:49:12.830Z,98395.53
2022-10-11T11:54:14.326Z,98405.09
2022-10-11T11:59:15.563Z,98407.19
2022-10-11T12:04:16.863Z,98412.03
2022-10-11T12:09:18.117Z,98415.19
2022-10-11T12:14:19.340Z,98411.72
2022-10-11T12:19:20.614Z,98417.47
2022-10-11T12:24:21.821Z,98415.06
2022-10-11T12:29:28.453Z,98415.00
2022-10-11T12:34:30.593Z,98418.53
2022-10-11T12:39:31.873Z,98417.22
2022-10-11T12:44:33.120Z,98412.22
2022-10-11T12:49:36.293Z,98420.38
2022-10-11T12:54:37.628Z,98423.41
2022-10-11T12:59:38.856Z,98432.72
2022-10-11T13:04:40.073Z,98421.31
2022-10-11T13:09:45.327Z,98428.09
2022-10-11T13:14:49.397Z,98433.56
2022-10-11T13:19:50.617Z,98429.78
2022-10-11T13:24:51.851Z,98427.31
2022-10-11T13:29:53.101Z,98436.69
2022-10-11T13:34:57.559Z,98436.00
2022-10-11T13:39:58.948Z,98440.88
2022-10-11T13:45:00.277Z,98429.34
2022-10-11T13:50:01.619Z,98426.47
2022-10-11T13:55:02.851Z,98421.53
2022-10-11T14:00:04.268Z,98417.66
2022-10-11T14:05:05.813Z,98421.28
2022-10-11T14:10:07.172Z,98419.59
2022-10-11T14:15:08.430Z,98411.50
2022-10-11T14:20:11.549Z,98408.16
2022-10-11T14:25:13.191Z,98407.00
2022-10-11T14:30:30.173Z,98393.69
2022-10-11T14:35:34.345Z,98375.25
2022-10-11T14:40:36.045Z,98374.69
2022-10-11T14:45:37.268Z,98369.53
2022-10-11T14:50:39.201Z,98355.41
2022-10-11T14:55:40.618Z,98347.50
2022-10-11T15:00:41.836Z,98342.16
2022-10-11T15:05:43.080Z,98331.91
2022-10-11T15:10:44.314Z,98318.53
2022-10-11T15:15:45.980Z,98324.56
2022-10-11T15:20:48.486Z,98332.97
2022-10-11T15:25:50.157Z,98343.53
2022-10-11T15:30:51.600Z,98350.53
2022-10-11T15:35:52.819Z,98347.91
2022-10-11T15:40:54.100Z,98357.13
2022-10-11T15:45:55.372Z,98362.38
2022-10-11T15:50:56.835Z,98360.13
2022-10-11T15:55:59.930Z,98369.94
2022-10-11T16:01:01.921Z,98368.03
2022-10-11T16:06:05.398Z,98374.19
2022-10-11T16:11:07.243Z,98364.06
2022-10-11T16:16:08.994Z,98356.91
2022-10-11T16:21:10.897Z,98352.16
2022-10-11T16:26:12.135Z,98358.03
2022-10-11T16:31:13.447Z,98369.34
2022-10-11T16:36:36.461Z,98368.78
2022-10-11T16:41:38.064Z,98382.19
2022-10-11T16:46:40.588Z,98385.16
2022-10-11T16:51:41.854Z,98388.38
2022-10-11T16:56:47.329Z,98400.91
2022-10-11T17:01:48.550Z,98406.50
2022-10-11T17:06:49.897Z,98399.97
2022-10-11T17:11:51.128Z,98407.41
2022-10-11T17:16:52.406Z,98413.59
2022-10-11T17:21:53.694Z,98407.63
2022-10-11T17:26:54.919Z,98409.75
2022-10-11T17:31:56.245Z,98413.06
2022-10-11T17:36:57.498Z,98411.78
2022-10-11T17:42:04.377Z,98410.50
2022-10-11T17:47:05.673Z,98414.34
2022-10-11T17:52:06.907Z,98410.56
2022-10-11T17:57:08.335Z,98408.50
2022-10-11T18:02:09.677Z,98411.81
2022-10-11T18:07:11.052Z,98408.41
2022-10-11T18:12:12.600Z,98409.25
2022-10-11T18:17:14.881Z,98417.28
2022-10-11T18:22:16.098Z,98414.50
2022-10-11T18:27:17.501Z,98408.84
2022-10-11T18:32:18.821Z,98405.25
2022-10-11T18:37:20.038Z,98411.13
2022-10-11T18:42:21.430Z,98411.25
2022-10-11T18:47:22.680Z,98403.94
2022-10-11T18:52:23.917Z,98406.16
2022-10-11T18:57:25.138Z,98402.97
2022-10-11T19:02:26.411Z,98403.69
2022-10-11T19:07:28.616Z,98406.31
2022-10-11T19:12:29.829Z,98413.78
2022-10-11T19:17:31.204Z,98414.00
2022-10-11T19:22:32.442Z,98411.25
2022-10-11T19:27:33.917Z,98415.53
2022-10-11T19:32:35.577Z,98416.91
2022-10-11T19:37:36.838Z,98416.91
2022-10-11T19:42:38.082Z,98423.91
2022-10-11T19:47:39.546Z,98427.16
2022-10-11T19:52:44.798Z,98426.22
2022-10-11T19:57:46.270Z,98429.97
2022-10-11T20:02:47.478Z,98432.97
2022-10-11T20:07:48.757Z,98442.47
2022-10-11T20:12:50.367Z,98444.97
2022-10-11T20:17:51.734Z,98439.25
2022-10-11T20:22:56.544Z,98436.22
2022-10-11T20:27:57.757Z,98451.16
2022-10-11T20:32:58.974Z,98453.03
2022-10-11T20:38:00.201Z,98453.28
2022-10-11T20:43:01.418Z,98451.53
2022-10-11T20:48:02.623Z,98459.16
2022-10-11T20:53:03.831Z,98463.59
2022-10-11T20:58:05.110Z,98456.44
2022-10-11T21:03:06.346Z,98460.00
2022-10-11T21:08:07.550Z,98465.59
2022-10-11T21:13:09.267Z,98465.63
2022-10-11T21:18:10.500Z,98472.56
2022-10-11T21:23:11.706Z,98479.63
2022-10-11T21:28:12.975Z,98470.69
2022-10-11T21:33:14.199Z,98465.72
2022-10-11T21:38:15.401Z,98467.53
2022-10-11T21:43:16.605Z,98468.22
2022-10-11T21:48:17.823Z,98475.47
2022-10-11T21:53:19.027Z,98471.41
2022-10-11T21:58:20.232Z,98473.16
2022-10-11T22:03:21.490Z,98476.91
2022-10-11T22:08:22.689Z,98470.41
2022-10-11T22:13:24.058Z,98467.75
2022-10-11T22:18:25.509Z,98479.75
2022-10-11T22:23:26.714Z,98470.84
2022-10-11T22:28:27.946Z,98465.72
2022-10-11T22:33:29.238Z,98464.22
2022-10-11T22:38:30.447Z,98453.56
2022-10-11T22:43:31.645Z,98450.00
2022-10-11T22:48:32.855Z,98443.38
2022-10-11T22:53:34.073Z,98434.59
2022-10-11T22:58:35.273Z,98437.81
2022-10-11T23:03:36.644Z,98439.16
2022-10-11T23:08:37.969Z,98444.47
2022-10-11T23:13:39.199Z,98434.16
2022-10-11T23:18:40.421Z,98434.81
2022-10-11T23:23:41.670Z,98445.78
2022-10-11T23:28:43.021Z,98449.81
2022-10-11T23:33:44.311Z,98454.25
2022-10-11T23:38:45.590Z,98456.63
2022-10-11T23:43:46.802Z,98467.75
2022-10-11T23:48:48.022Z,98463.47
2022-10-11T23:53:49.348Z,98458.66
2022-10-11T23:58:50.618Z,98448.78
